UPSVAC Airport Information Service

Yeager Airport

ICAO: KCRW Country: Charleston, West Virginia
Latitude: 38.3758 Longitude: -81.5931
Latest Arrival : UPSJUMP (KGSP-KCRW) Latest Departure : AMF2007 (KCRW-KSDF)


WX CaptureLIVE
Data provided by noaa.gov | Fetched at 01:09:36

METAR : KCRW 150054Z 25009KT 10SM FEW040 SCT065 27/17 A2979 RMK AO2 LTG DSNT N AND NE SLP077 T02670167

TAF : KCRW 142329Z 1500/1524 23008KT P6SM SCT060 FM150500 29006KT P6SM BKN100 FM150900 00000KT 2SM BR BKN015 FM151200 00000KT P6SM SCT020 BKN100


Runway Data for KCRW
Data provided by openaviationdata.com

Runway ID Mag Var Hdg Length Elevation Surface ILS Freq ILS Id ILS Slope
5 -6 53° 6300 ft 915 ft Asphalt 110.3 IHCV 3
15 -6 147° 4751 ft 915 ft Asphalt -- -- --
23 -6 233° 6300 ft 915 ft Asphalt 110.3 ICRW 2
33 -6 327° 4751 ft 915 ft Asphalt -- -- --

Yeager Airport, Charleston, West Virginia
Use only for reference purposes



Not for navigational purposes.